Time;durP1;ratioP1;P1;durP2;ratioP2;P2;SDS_P1;SDS_P2;PMS_P1;PMS_P2;Temp;Humidity;BMP_temperature;BMP_pressure;BME280_temperature;BME280_humidity;BME280_pressure;Samples;Min_cycle;Max_cycle;Signal;HPM_P1;HPM_P2
2023/12/27 00:00:04;;;;;;;;;9.00;8.00;;;;;10.79;100.00;98667.88;6217287;28;96368;-56
2023/12/27 00:03:08;;;;;;;;;10.00;9.00;;;;;10.62;100.00;98656.06;6218507;28;96332;-56
2023/12/27 00:06:11;;;;;;;;;9.00;8.00;;;;;10.72;100.00;98672.53;6218304;28;96304;-56
2023/12/27 00:09:15;;;;;;;;;9.00;7.33;;;;;10.70;100.00;98696.22;6200827;28;96926;-56
2023/12/27 00:12:20;;;;;;;;;10.00;9.50;;;;;10.70;100.00;98698.91;6218054;28;96867;-56
2023/12/27 00:15:23;;;;;;;;;7.50;7.00;;;;;10.74;100.00;98708.19;6218017;28;96176;-57
2023/12/27 00:18:27;;;;;;;;;9.40;8.00;;;;;10.75;100.00;98699.06;6217781;28;96334;-56
2023/12/27 00:21:30;;;;;;;;;9.00;8.00;;;;;10.77;100.00;98696.94;6218896;28;96345;-56
2023/12/27 00:24:35;;;;;;;;;8.00;7.00;;;;;10.76;100.00;98712.28;6218452;28;96400;-56
2023/12/27 00:27:38;;;;;;;;;9.00;9.00;;;;;10.82;100.00;98715.97;6218892;28;97120;-56
2023/12/27 00:30:42;;;;;;;;;10.00;9.00;;;;;10.89;100.00;98714.00;6200192;28;96901;-56
2023/12/27 00:33:45;;;;;;;;;8.80;8.00;;;;;10.99;100.00;98721.56;6218742;28;96496;-56
2023/12/27 00:36:49;;;;;;;;;8.00;7.50;;;;;10.97;100.00;98727.16;6218273;28;96767;-57
2023/12/27 00:39:53;;;;;;;;;9.00;8.00;;;;;10.94;100.00;98751.09;6217872;28;96339;-56
2023/12/27 00:42:57;;;;;;;;;7.33;6.67;;;;;10.61;100.00;98692.97;6224370;28;96495;-56
2023/12/27 00:46:02;;;;;;;;;7.00;6.00;;;;;10.95;100.00;98758.09;6218501;28;96367;-56
2023/12/27 00:49:05;;;;;;;;;8.40;7.00;;;;;10.96;100.00;98765.97;6220981;28;96654;-56
2023/12/27 00:52:10;;;;;;;;;7.60;6.60;;;;;11.03;100.00;98763.19;6219171;28;96302;-60
2023/12/27 00:55:16;;;;;;;;;6.00;6.00;;;;;11.12;100.00;98772.63;6216181;28;96520;-60
2023/12/27 00:58:19;;;;;;;;;6.67;6.00;;;;;11.13;100.00;98769.72;6217001;28;97011;-60
2023/12/27 01:01:22;;;;;;;;;6.00;6.00;;;;;11.20;100.00;98775.81;6207492;28;96465;-60
2023/12/27 01:04:25;;;;;;;;;6.00;5.20;;;;;11.24;100.00;98766.22;6216150;28;96258;-60
2023/12/27 01:07:28;;;;;;;;;5.00;5.00;;;;;11.27;100.00;98765.78;6216957;28;96977;-60
2023/12/27 01:10:33;;;;;;;;;5.60;5.00;;;;;11.21;100.00;98776.66;6215402;28;96606;-60
2023/12/27 01:13:36;;;;;;;;;4.00;4.00;;;;;11.23;100.00;98786.19;6231935;28;96618;-60
2023/12/27 01:16:39;;;;;;;;;5.00;5.00;;;;;11.07;100.00;98778.72;6216791;28;96619;-60
2023/12/27 01:19:42;;;;;;;;;5.40;4.60;;;;;11.26;100.00;98803.78;6198065;28;99160;-60
2023/12/27 01:22:47;;;;;;;;;4.00;4.00;;;;;11.28;100.00;98804.38;6216671;28;96408;-60
2023/12/27 01:25:51;;;;;;;;;4.00;3.50;;;;;11.32;100.00;98807.44;6216126;28;96739;-60
2023/12/27 01:28:54;;;;;;;;;6.00;5.00;;;;;11.38;100.00;98833.53;6214988;28;96342;-60
2023/12/27 01:31:57;;;;;;;;;5.00;5.00;;;;;11.37;100.00;98823.78;6191144;28;96788;-60
2023/12/27 01:35:01;;;;;;;;;5.00;5.00;;;;;11.41;100.00;98830.34;6216625;28;96435;-60
2023/12/27 01:38:04;;;;;;;;;3.00;3.00;;;;;11.43;100.00;98831.78;6216016;28;96365;-60
2023/12/27 01:41:09;;;;;;;;;5.40;4.00;;;;;11.44;100.00;98830.72;6215694;28;96381;-60
2023/12/27 01:44:12;;;;;;;;;6.00;5.00;;;;;11.43;100.00;98829.09;6215618;28;96304;-60
2023/12/27 01:47:15;;;;;;;;;5.00;4.00;;;;;11.49;100.00;98830.03;6216102;28;96301;-60
2023/12/27 01:50:19;;;;;;;;;5.40;5.40;;;;;11.50;100.00;98826.28;6214699;28;96266;-60
2023/12/27 01:53:23;;;;;;;;;3.00;3.00;;;;;11.52;100.00;98835.00;6213060;28;96901;-60
2023/12/27 01:56:28;;;;;;;;;3.80;3.80;;;;;11.58;100.00;98834.88;6216076;28;96287;-60
2023/12/27 01:59:32;;;;;;;;;4.00;4.00;;;;;11.59;100.00;98833.00;6196457;28;98661;-60
2023/12/27 02:02:47;;;;;;;;;3.00;3.00;;;;;11.67;100.00;98824.59;6219235;28;96370;-56
2023/12/27 02:05:53;;;;;;;;;4.60;4.60;;;;;11.63;100.00;98845.03;6210640;28;97113;-55
2023/12/27 02:08:57;;;;;;;;;4.00;4.00;;;;;11.64;100.00;98846.63;6215763;28;96275;-55
2023/12/27 02:12:01;;;;;;;;;2.80;2.80;;;;;11.74;100.00;98846.94;6214808;28;96660;-55
2023/12/27 02:15:05;;;;;;;;;3.00;3.00;;;;;11.81;100.00;98850.38;6191532;28;96291;-55
2023/12/27 02:18:11;;;;;;;;;4.60;4.60;;;;;11.74;100.00;98838.84;6185282;28;96546;-55
2023/12/27 02:21:15;;;;;;;;;3.00;3.00;;;;;11.70;100.00;98848.44;6177644;28;96372;-55
2023/12/27 02:24:19;;;;;;;;;3.00;3.00;;;;;11.59;100.00;98819.50;6175808;28;96237;-55
2023/12/27 02:27:24;;;;;;;;;5.00;5.00;;;;;11.77;100.00;98843.81;6191642;28;96263;-55
2023/12/27 02:30:27;;;;;;;;;3.00;3.00;;;;;11.81;100.00;98846.84;6181831;28;96514;-55
2023/12/27 02:33:31;;;;;;;;;2.80;2.80;;;;;11.72;100.00;98857.16;6182583;28;97648;-56
2023/12/27 02:36:37;;;;;;;;;3.00;3.00;;;;;11.76;100.00;98849.44;6190838;28;96330;-55
2023/12/27 02:39:40;;;;;;;;;3.75;3.00;;;;;11.73;100.00;98852.59;6190343;28;96361;-55
2023/12/27 02:42:47;;;;;;;;;1.80;1.20;;;;;11.70;100.00;98865.47;6188095;28;96888;-55
2023/12/27 02:45:50;;;;;;;;;3.00;2.40;;;;;11.60;100.00;98865.19;6169486;28;98065;-55
2023/12/27 02:48:54;;;;;;;;;3.40;3.40;;;;;11.63;100.00;98869.31;6181838;28;96843;-55
2023/12/27 02:51:57;;;;;;;;;4.00;3.40;;;;;11.73;100.00;98883.09;6187558;28;98199;-55
2023/12/27 02:55:00;;;;;;;;;3.25;3.25;;;;;11.72;100.00;98886.84;6190486;28;96322;-55
2023/12/27 02:58:04;;;;;;;;;4.00;4.00;;;;;11.85;100.00;98883.16;6181419;28;97586;-55
2023/12/27 03:01:07;;;;;;;;;3.00;2.00;;;;;11.78;100.00;98875.13;6165095;28;97028;-55
2023/12/27 03:04:11;;;;;;;;;5.00;5.00;;;;;11.94;100.00;98895.28;6175927;28;96416;-55
2023/12/27 03:07:14;;;;;;;;;2.40;2.40;;;;;11.96;100.00;98907.53;6189109;28;96249;-55
2023/12/27 03:10:17;;;;;;;;;4.40;4.00;;;;;12.05;100.00;98895.31;6181670;28;96315;-55
2023/12/27 03:13:22;;;;;;;;;6.00;6.00;;;;;12.06;100.00;98915.06;6177173;28;96603;-57
2023/12/27 03:16:27;;;;;;;;;3.80;3.00;;;;;12.11;100.00;98910.63;6195446;28;96195;-58
2023/12/27 03:19:30;;;;;;;;;3.80;3.80;;;;;12.16;100.00;98904.53;6195110;28;96186;-58
2023/12/27 03:22:33;;;;;;;;;4.00;4.00;;;;;12.21;100.00;98909.22;6174211;28;96160;-57
2023/12/27 03:25:36;;;;;;;;;5.40;5.40;;;;;12.24;100.00;98915.00;6173493;28;96649;-57
2023/12/27 03:28:41;;;;;;;;;4.00;4.00;;;;;11.95;100.00;98894.22;6194130;28;96692;-57
2023/12/27 03:31:44;;;;;;;;;5.00;5.00;;;;;11.95;100.00;98913.97;6182107;28;96367;-57
2023/12/27 03:34:47;;;;;;;;;4.00;3.00;;;;;11.95;100.00;98927.47;6180636;28;96565;-57
2023/12/27 03:37:50;;;;;;;;;4.50;4.50;;;;;11.90;100.00;98930.03;6191454;28;96404;-57
2023/12/27 03:40:53;;;;;;;;;5.00;5.00;;;;;11.83;100.00;98940.09;6169938;28;96462;-57
2023/12/27 03:43:58;;;;;;;;;2.80;2.80;;;;;11.56;100.00;98954.97;6186972;28;96913;-57
2023/12/27 03:47:01;;;;;;;;;3.75;3.00;;;;;11.53;100.00;98971.63;6202405;28;96290;-57
2023/12/27 03:50:05;;;;;;;;;3.00;3.00;;;;;11.49;100.00;98973.13;6195405;28;96274;-57
2023/12/27 03:53:08;;;;;;;;;2.50;2.00;;;;;11.28;100.00;98963.63;6198001;28;96386;-57
2023/12/27 03:56:11;;;;;;;;;3.00;3.00;;;;;11.25;100.00;98985.63;6198650;28;96249;-57
2023/12/27 03:59:15;;;;;;;;;3.00;3.00;;;;;11.11;100.00;98984.94;6198545;28;96331;-57
2023/12/27 04:02:18;;;;;;;;;3.40;3.00;;;;;11.15;100.00;98988.84;6197894;28;96266;-57
2023/12/27 04:05:21;;;;;;;;;3.75;3.75;;;;;11.08;100.00;98985.41;6180318;28;96327;-57
2023/12/27 04:08:25;;;;;;;;;2.80;2.00;;;;;11.02;100.00;98998.94;6173688;28;98969;-57
2023/12/27 04:11:28;;;;;;;;;5.00;4.60;;;;;11.01;100.00;98984.63;6178530;28;96168;-57
2023/12/27 04:14:33;;;;;;;;;3.00;3.00;;;;;11.01;100.00;98994.59;6177761;28;96568;-57
2023/12/27 04:17:36;;;;;;;;;3.50;3.50;;;;;10.94;100.00;98989.28;6179508;28;96855;-57
2023/12/27 04:20:39;;;;;;;;;3.00;3.00;;;;;10.91;100.00;98997.78;6193029;28;96259;-57
2023/12/27 04:23:42;;;;;;;;;2.80;2.00;;;;;10.87;100.00;99004.69;6176307;28;96387;-55
2023/12/27 04:26:45;;;;;;;;;1.75;1.75;;;;;10.67;100.00;98994.06;6179350;28;96262;-55
2023/12/27 04:29:50;;;;;;;;;3.00;2.60;;;;;10.60;100.00;99005.94;6189910;28;96361;-55
2023/12/27 04:32:54;;;;;;;;;2.00;2.00;;;;;10.58;100.00;99022.34;6191207;28;96343;-55
2023/12/27 04:35:57;;;;;;;;;1.00;1.00;;;;;10.50;100.00;99024.47;6187256;28;97579;-56
2023/12/27 04:39:02;;;;;;;;;4.00;4.00;;;;;10.48;100.00;99034.63;6188245;28;96455;-55
2023/12/27 04:42:07;;;;;;;;;3.00;3.00;;;;;10.38;100.00;99038.63;6204080;28;96410;-55
2023/12/27 04:45:12;;;;;;;;;3.67;3.00;;;;;10.36;100.00;99046.09;6189815;28;96786;-56
2023/12/27 04:48:15;;;;;;;;;2.40;2.00;;;;;10.29;100.00;99031.84;6182259;28;97014;-56
2023/12/27 04:51:20;;;;;;;;;2.00;2.00;;;;;10.23;100.00;99043.50;6184999;28;97950;-55
2023/12/27 04:54:23;;;;;;;;;2.00;2.00;;;;;10.15;100.00;99035.63;6186017;28;96479;-56
2023/12/27 04:57:26;;;;;;;;;2.00;1.00;;;;;10.04;100.00;99051.63;6176097;28;97091;-55
2023/12/27 05:00:31;;;;;;;;;2.00;2.00;;;;;10.02;100.00;99042.97;6161788;28;96789;-55
2023/12/27 05:03:35;;;;;;;;;2.00;2.00;;;;;9.96;100.00;99058.09;6187760;28;97015;-55
2023/12/27 05:06:38;;;;;;;;;2.40;2.40;;;;;9.92;100.00;99060.38;6189983;28;96680;-55
2023/12/27 05:09:41;;;;;;;;;2.00;1.50;;;;;9.88;100.00;99055.63;6212799;28;96547;-55
2023/12/27 05:12:44;;;;;;;;;2.00;2.00;;;;;9.94;100.00;99069.09;6210475;28;96337;-55
2023/12/27 05:15:49;;;;;;;;;2.00;2.00;;;;;9.95;100.00;99070.75;6186517;28;96627;-55
2023/12/27 05:18:52;;;;;;;;;1.00;1.00;;;;;10.04;100.00;99075.88;6188679;28;97049;-55
2023/12/27 05:21:55;;;;;;;;;2.00;2.00;;;;;9.99;100.00;99077.34;6191864;28;96332;-55
2023/12/27 05:24:58;;;;;;;;;3.00;2.00;;;;;9.90;100.00;99070.56;6199130;28;96849;-55
2023/12/27 05:28:01;;;;;;;;;3.00;3.00;;;;;9.99;100.00;99093.50;6197360;28;96345;-55
2023/12/27 05:31:06;;;;;;;;;4.00;3.25;;;;;9.85;100.00;99099.16;6200058;28;96251;-56
2023/12/27 05:34:09;;;;;;;;;2.00;2.00;;;;;9.89;100.00;99095.81;6181008;28;97245;-55
2023/12/27 05:37:13;;;;;;;;;1.20;1.00;;;;;9.73;100.00;99093.59;6185367;28;96234;-55
2023/12/27 05:40:16;;;;;;;;;2.00;1.00;;;;;9.81;100.00;99114.09;6186433;28;96516;-56
2023/12/27 05:43:19;;;;;;;;;2.40;2.00;;;;;9.56;100.00;99109.38;6190852;28;96996;-55
2023/12/27 05:46:24;;;;;;;;;1.00;1.00;;;;;9.64;100.00;99126.31;6175101;28;96507;-55
2023/12/27 05:49:27;;;;;;;;;1.00;1.00;;;;;9.62;100.00;99136.50;6201202;28;96402;-55
2023/12/27 05:52:30;;;;;;;;;1.80;1.80;;;;;9.61;100.00;99141.03;6192470;28;96481;-56
2023/12/27 05:55:34;;;;;;;;;1.00;1.00;;;;;9.55;100.00;99144.56;6191352;28;96346;-56
2023/12/27 05:58:37;;;;;;;;;3.00;2.00;;;;;9.55;100.00;99149.94;6190970;28;96297;-55
2023/12/27 06:01:48;;;;;;;;;2.00;2.00;;;;;9.63;100.00;99163.19;6196596;28;96805;-56
2023/12/27 06:04:51;;;;;;;;;2.00;2.00;;;;;9.63;100.00;99176.63;6179834;28;96656;-55
2023/12/27 06:07:54;;;;;;;;;3.00;2.40;;;;;9.69;100.00;99183.06;6180450;28;96079;-55
2023/12/27 06:10:58;;;;;;;;;1.50;1.50;;;;;9.77;100.00;99182.88;6189681;28;96257;-55
2023/12/27 06:14:02;;;;;;;;;1.00;1.00;;;;;9.81;100.00;99189.47;6192528;28;97215;-55
2023/12/27 06:17:06;;;;;;;;;2.00;1.00;;;;;9.86;100.00;99190.50;6196818;28;96236;-55
2023/12/27 06:20:10;;;;;;;;;2.00;1.00;;;;;9.92;100.00;99186.16;6195344;28;99104;-55
2023/12/27 06:23:13;;;;;;;;;1.40;1.00;;;;;9.96;100.00;99199.00;6194617;28;96297;-55
2023/12/27 06:26:16;;;;;;;;;1.00;1.00;;;;;10.00;100.00;99199.38;6194903;28;96411;-55
2023/12/27 06:29:19;;;;;;;;;2.00;2.00;;;;;9.96;100.00;99203.53;6194020;28;96407;-55
2023/12/27 06:32:23;;;;;;;;;2.00;2.00;;;;;10.11;100.00;99211.38;6207437;28;96973;-55
2023/12/27 06:35:26;;;;;;;;;2.00;2.00;;;;;10.22;100.00;99219.66;6184430;28;97361;-56
2023/12/27 06:38:29;;;;;;;;;1.00;1.00;;;;;10.26;100.00;99222.78;6185779;28;96416;-55
2023/12/27 06:41:33;;;;;;;;;3.00;2.00;;;;;10.22;100.00;99232.31;6191260;28;96440;-57
2023/12/27 06:44:36;;;;;;;;;3.00;3.00;;;;;10.24;100.00;99238.31;6214759;28;96369;-57
2023/12/27 06:47:40;;;;;;;;;1.00;1.00;;;;;10.26;100.00;99245.13;6217948;28;97495;-57
2023/12/27 06:50:44;;;;;;;;;1.60;1.60;;;;;10.33;100.00;99239.75;6215418;28;96332;-57
2023/12/27 06:53:47;;;;;;;;;3.00;3.00;;;;;10.33;100.00;99240.56;6195894;28;96626;-58
2023/12/27 06:56:50;;;;;;;;;1.20;1.00;;;;;10.27;100.00;99252.19;6181597;28;96774;-57
2023/12/27 06:59:53;;;;;;;;;2.00;2.00;;;;;10.16;100.00;99247.47;6181218;28;96606;-57
2023/12/27 07:02:59;;;;;;;;;2.00;2.00;;;;;10.15;100.00;99240.41;6177795;28;97017;-57
2023/12/27 07:06:02;;;;;;;;;2.75;2.00;;;;;10.16;100.00;99252.88;6178240;28;96280;-58
2023/12/27 07:09:07;;;;;;;;;3.67;2.00;;;;;10.02;100.00;99268.16;6180230;28;98200;-57
2023/12/27 07:12:11;;;;;;;;;2.00;1.80;;;;;10.00;100.00;99280.19;6177660;28;96369;-57
2023/12/27 07:15:15;;;;;;;;;2.00;2.00;;;;;10.10;100.00;99287.84;6180775;28;96338;-57
2023/12/27 07:18:20;;;;;;;;;2.20;1.20;;;;;10.06;100.00;99292.00;6185146;28;98112;-57
2023/12/27 07:21:23;;;;;;;;;2.00;1.40;;;;;10.16;100.00;99305.91;6188655;28;96694;-57
2023/12/27 07:24:26;;;;;;;;;2.40;2.00;;;;;10.29;100.00;99317.50;6190452;28;96378;-58
2023/12/27 07:27:30;;;;;;;;;3.00;3.00;;;;;10.39;100.00;99315.22;6182470;28;99001;-57
2023/12/27 07:30:33;;;;;;;;;3.00;2.40;;;;;10.62;100.00;99316.59;6175618;28;96352;-58
2023/12/27 07:33:38;;;;;;;;;4.20;2.00;;;;;10.90;100.00;99319.81;6187025;28;96362;-58
2023/12/27 07:36:43;;;;;;;;;3.00;3.00;;;;;11.09;100.00;99318.13;6184366;28;97033;-57
2023/12/27 07:39:46;;;;;;;;;2.00;2.00;;;;;11.34;100.00;99337.09;6192749;28;96248;-58
2023/12/27 07:42:51;;;;;;;;;2.20;2.20;;;;;11.46;100.00;99319.16;6187336;28;99381;-57
2023/12/27 07:45:54;;;;;;;;;2.00;2.00;;;;;12.16;100.00;99342.38;6175915;28;96403;-58
2023/12/27 07:48:58;;;;;;;;;2.00;1.60;;;;;13.27;100.00;99348.50;6183975;28;96401;-58
2023/12/27 07:52:02;;;;;;;;;3.00;2.00;;;;;14.83;100.00;99345.41;6185156;28;96943;-56
2023/12/27 07:55:05;;;;;;;;;2.00;1.00;;;;;16.96;100.00;99354.75;6190833;28;96328;-56
2023/12/27 07:58:09;;;;;;;;;1.60;1.60;;;;;19.09;100.00;99365.81;6171337;28;97145;-56
2023/12/27 08:01:12;;;;;;;;;4.60;2.80;;;;;21.21;100.00;99365.31;6178065;28;96656;-56
2023/12/27 08:04:16;;;;;;;;;3.00;3.00;;;;;22.82;98.98;99372.50;6187296;28;97198;-57
2023/12/27 08:07:20;;;;;;;;;3.00;2.20;;;;;24.58;93.11;99370.50;6183677;28;96390;-56
2023/12/27 08:10:23;;;;;;;;;2.00;2.00;;;;;25.98;86.04;99372.72;6177637;28;96351;-57
2023/12/27 08:13:26;;;;;;;;;4.00;3.00;;;;;27.17;81.00;99376.69;6185001;28;98725;-56
2023/12/27 08:16:30;;;;;;;;;3.00;2.80;;;;;28.31;77.55;99397.69;6167043;28;98496;-57
2023/12/27 08:19:35;;;;;;;;;2.00;2.00;;;;;29.22;70.44;99392.63;6185101;28;97484;-57
2023/12/27 08:22:38;;;;;;;;;2.00;2.00;;;;;30.16;68.35;99395.25;6186123;28;97110;-56
2023/12/27 08:25:41;;;;;;;;;3.50;3.00;;;;;30.65;65.10;99394.38;6190436;28;96306;-56
2023/12/27 08:28:44;;;;;;;;;4.00;2.60;;;;;31.27;65.43;99407.34;6183147;28;97614;-57
2023/12/27 08:31:47;;;;;;;;;3.00;3.00;;;;;31.54;62.27;99406.66;6177109;28;96306;-56
2023/12/27 08:34:52;;;;;;;;;3.00;2.20;;;;;31.86;62.30;99406.91;6179248;28;96346;-57
2023/12/27 08:37:55;;;;;;;;;2.00;2.00;;;;;32.52;61.34;99419.34;6182615;28;96348;-57
2023/12/27 08:40:58;;;;;;;;;2.00;2.00;;;;;32.72;56.09;99423.13;6182331;28;96417;-57
2023/12/27 08:44:01;;;;;;;;;2.00;2.00;;;;;33.24;58.21;99408.19;6178950;28;96302;-57
2023/12/27 08:47:05;;;;;;;;;1.00;1.00;;;;;33.83;58.29;99402.50;6180202;28;96815;-57
2023/12/27 08:50:10;;;;;;;;;4.00;3.00;;;;;34.17;55.15;99406.47;6185455;28;96543;-57
2023/12/27 08:53:13;;;;;;;;;3.00;3.00;;;;;34.63;54.44;99410.31;6177320;28;96836;-57
2023/12/27 08:56:17;;;;;;;;;3.00;3.00;;;;;35.31;55.04;99406.84;6168884;28;97230;-57
2023/12/27 08:59:20;;;;;;;;;2.60;2.60;;;;;35.71;52.78;99415.56;6168488;28;98386;-57
2023/12/27 09:02:23;;;;;;;;;4.00;3.00;;;;;35.96;52.92;99422.38;6175961;28;96290;-59
2023/12/27 09:05:28;;;;;;;;;3.00;2.25;;;;;35.67;50.97;99414.72;6170657;28;96350;-60
2023/12/27 09:08:31;;;;;;;;;2.75;2.00;;;;;36.14;51.53;99421.84;6179116;28;96553;-60
2023/12/27 09:11:34;;;;;;;;;2.00;2.00;;;;;36.23;49.70;99425.19;6192227;28;98355;-60
2023/12/27 09:14:44;;;;;;;;;4.00;3.60;;;;;36.40;49.37;99408.59;6191223;28;96309;-60
2023/12/27 09:17:47;;;;;;;;;2.80;2.80;;;;;36.55;48.34;99426.44;6176107;28;96878;-60
2023/12/27 09:20:52;;;;;;;;;3.60;3.60;;;;;36.68;49.08;99419.41;6178296;28;96535;-60
2023/12/27 09:23:55;;;;;;;;;3.80;3.80;;;;;36.29;48.58;99429.28;6177069;28;97185;-60
2023/12/27 09:26:58;;;;;;;;;2.00;2.00;;;;;36.77;48.43;99419.09;6185850;28;96357;-59
2023/12/27 09:30:02;;;;;;;;;4.40;3.00;;;;;37.06;47.45;99418.22;6169888;28;99257;-60
2023/12/27 09:33:06;;;;;;;;;2.50;2.50;;;;;37.33;47.25;99409.66;6182534;28;97216;-60
2023/12/27 09:36:10;;;;;;;;;3.00;3.00;;;;;37.73;46.98;99413.22;6171732;28;97433;-60
2023/12/27 09:39:14;;;;;;;;;3.00;2.00;;;;;37.94;44.83;99411.78;6181518;28;97216;-59
2023/12/27 09:42:17;;;;;;;;;2.00;2.00;;;;;37.77;44.05;99418.09;6174188;28;96598;-60
2023/12/27 09:45:23;;;;;;;;;2.20;2.20;;;;;37.73;44.50;99406.78;6186019;28;96279;-59
2023/12/27 09:48:29;;;;;;;;;3.00;3.00;;;;;37.45;45.02;99410.16;6178556;28;96458;-59
2023/12/27 09:51:35;;;;;;;;;4.00;4.00;;;;;37.49;44.02;99399.75;6183351;28;96709;-60
2023/12/27 09:54:38;;;;;;;;;2.00;2.00;;;;;37.50;43.04;99401.38;6185420;28;96969;-59
2023/12/27 09:57:42;;;;;;;;;2.00;2.00;;;;;37.17;44.25;99401.47;6174640;28;96244;-59
2023/12/27 10:00:47;;;;;;;;;2.40;2.40;;;;;37.15;43.28;99403.84;6173517;28;97290;-59
2023/12/27 10:04:03;;;;;;;;;3.00;3.00;;;;;37.43;44.27;99401.31;6180334;28;96470;-59
2023/12/27 10:07:10;;;;;;;;;2.00;2.00;;;;;37.10;43.13;99390.97;6173131;28;97553;-59
2023/12/27 10:10:14;;;;;;;;;4.20;3.80;;;;;37.67;43.83;99403.56;6174090;28;97121;-59
2023/12/27 10:13:31;;;;;;;;;2.20;2.00;;;;;38.08;42.78;99398.63;6183238;28;96340;-56
2023/12/27 10:16:35;;;;;;;;;2.80;1.80;;;;;38.50;41.78;99389.63;6189947;28;97024;-56
2023/12/27 10:19:40;;;;;;;;;1.80;1.80;;;;;38.85;41.46;99403.03;6179160;28;96259;-57
2023/12/27 10:22:46;;;;;;;;;4.00;3.00;;;;;38.78;41.01;99393.72;6184004;28;96990;-57
2023/12/27 10:25:50;;;;;;;;;2.00;2.00;;;;;38.56;41.25;99402.09;6184317;28;97358;-56
2023/12/27 10:28:53;;;;;;;;;2.40;2.00;;;;;38.84;40.50;99407.03;6177180;28;96262;-57
2023/12/27 10:31:57;;;;;;;;;2.00;2.00;;;;;38.31;40.26;99412.44;6175566;28;96309;-57
2023/12/27 10:35:01;;;;;;;;;3.40;3.00;;;;;38.37;40.37;99399.56;6190711;28;96878;-56
2023/12/27 10:38:06;;;;;;;;;3.00;3.00;;;;;38.59;40.93;99394.88;6181400;28;96951;-56
2023/12/27 10:41:10;;;;;;;;;2.75;2.00;;;;;38.53;39.67;99400.09;6174569;28;96398;-56
2023/12/27 10:44:17;;;;;;;;;3.50;2.00;;;;;38.93;39.97;99398.22;6190140;28;96340;-57
2023/12/27 10:47:20;;;;;;;;;1.40;1.00;;;;;38.90;38.09;99405.47;6175910;28;96237;-56
2023/12/27 10:50:27;;;;;;;;;2.00;2.00;;;;;39.04;39.27;99401.88;6182848;28;96803;-57
2023/12/27 10:53:34;;;;;;;;;2.80;2.80;;;;;39.21;39.30;99403.91;6185619;28;96323;-57
2023/12/27 10:56:38;;;;;;;;;3.00;3.00;;;;;39.48;39.09;99400.75;6184006;28;96287;-57
2023/12/27 10:59:42;;;;;;;;;2.00;2.00;;;;;39.61;38.77;99396.28;6184713;28;96315;-57
2023/12/27 11:02:47;;;;;;;;;3.00;3.00;;;;;39.59;38.48;99393.06;6182854;28;96364;-56
2023/12/27 11:05:52;;;;;;;;;2.00;2.00;;;;;39.45;38.72;99390.25;6185955;28;96430;-57
2023/12/27 11:08:57;;;;;;;;;3.00;2.00;;;;;38.81;37.57;99401.38;6189141;28;96689;-57
2023/12/27 11:12:02;;;;;;;;;2.00;2.00;;;;;38.10;37.51;99390.59;6182416;28;96772;-56
2023/12/27 11:15:07;;;;;;;;;2.00;2.00;;;;;38.13;39.43;99392.63;6175546;28;97012;-56
2023/12/27 11:18:11;;;;;;;;;3.00;2.60;;;;;38.07;39.53;99390.59;6182519;28;96567;-57
2023/12/27 11:21:15;;;;;;;;;3.00;3.00;;;;;38.31;39.45;99400.38;6182770;28;97299;-56
2023/12/27 11:24:20;;;;;;;;;3.00;2.00;;;;;38.07;39.47;99396.22;6179827;28;96463;-58
2023/12/27 11:27:23;;;;;;;;;2.00;2.00;;;;;37.48;39.20;99381.28;6178401;28;96352;-58
2023/12/27 11:30:29;;;;;;;;;4.00;2.60;;;;;37.52;39.58;99395.38;6181880;28;96689;-58
2023/12/27 11:33:35;;;;;;;;;2.00;2.00;;;;;36.81;39.74;99387.03;6176280;28;98369;-57
2023/12/27 11:36:39;;;;;;;;;4.40;3.60;;;;;36.31;40.02;99396.03;6178324;28;96405;-57
2023/12/27 11:39:47;;;;;;;;;2.00;2.00;;;;;35.59;41.47;99391.31;6178516;28;97349;-57
2023/12/27 11:42:50;;;;;;;;;2.25;2.25;;;;;35.70;41.98;99382.28;6176078;28;96359;-57
2023/12/27 11:45:58;;;;;;;;;3.00;2.00;;;;;35.71;42.43;99384.72;6176916;28;96309;-57
2023/12/27 11:49:01;;;;;;;;;3.00;3.00;;;;;35.54;42.54;99377.59;6185183;28;97679;-57
2023/12/27 11:52:06;;;;;;;;;2.20;2.00;;;;;34.89;42.63;99379.66;6185512;28;96283;-57
2023/12/27 11:55:16;;;;;;;;;4.00;3.40;;;;;34.56;43.67;99365.34;6182732;28;96566;-57
2023/12/27 11:58:30;;;;;;;;;2.40;2.00;;;;;34.04;43.50;99365.81;6186478;28;96390;-57
2023/12/27 12:01:35;;;;;;;;;4.00;3.80;;;;;34.08;43.97;99370.31;6176084;28;96368;-57
2023/12/27 12:04:46;;;;;;;;;2.40;2.40;;;;;33.93;44.39;99365.56;6178257;28;96622;-57
2023/12/27 12:07:58;;;;;;;;;3.00;2.00;;;;;33.97;44.40;99368.44;6181248;28;97802;-57
2023/12/27 12:11:09;;;;;;;;;2.00;2.00;;;;;33.50;44.37;99364.56;6166127;28;96911;-56
2023/12/27 12:14:15;;;;;;;;;2.00;2.00;;;;;33.02;43.82;99371.31;6179825;28;96525;-57
2023/12/27 12:17:20;;;;;;;;;2.50;2.00;;;;;32.99;45.41;99363.63;6171930;28;96667;-57
2023/12/27 12:20:23;;;;;;;;;2.60;2.60;;;;;32.73;45.88;99363.31;6186666;28;96720;-57
2023/12/27 12:23:29;;;;;;;;;2.00;2.00;;;;;32.52;46.32;99369.09;6186308;28;98677;-56
2023/12/27 12:26:34;;;;;;;;;2.00;1.60;;;;;32.18;46.69;99364.09;6188608;28;96458;-56
2023/12/27 12:29:37;;;;;;;;;1.80;1.20;;;;;31.75;47.74;99367.53;6172888;28;96278;-56
2023/12/27 12:32:41;;;;;;;;;4.50;4.00;;;;;31.30;48.55;99357.31;6188073;28;96322;-55
2023/12/27 12:35:45;;;;;;;;;3.00;3.00;;;;;31.07;49.58;99363.66;6194392;28;97337;-55
2023/12/27 12:38:48;;;;;;;;;3.50;3.00;;;;;30.53;49.67;99349.81;6201364;28;98550;-55
2023/12/27 12:41:52;;;;;;;;;4.00;3.20;;;;;29.73;51.51;99342.72;6192709;28;96504;-55
2023/12/27 12:44:56;;;;;;;;;5.40;4.00;;;;;28.29;54.12;99327.88;6198503;28;96523;-55
2023/12/27 12:47:59;;;;;;;;;3.50;3.50;;;;;27.10;56.35;99353.03;6206802;28;96348;-55
2023/12/27 12:51:10;;;;;;;;;4.40;4.40;;;;;25.67;59.82;99343.00;6193708;28;96411;-55
2023/12/27 12:54:13;;;;;;;;;5.00;4.00;;;;;24.49;63.13;99345.53;6189590;28;96234;-55
2023/12/27 12:57:18;;;;;;;;;5.00;4.00;;;;;23.68;65.50;99345.94;6182135;28;96505;-55
2023/12/27 13:00:22;;;;;;;;;5.00;5.00;;;;;23.10;68.25;99348.03;6185483;28;97803;-55
2023/12/27 13:03:27;;;;;;;;;5.40;4.00;;;;;22.64;70.38;99350.38;6186419;28;96558;-55
2023/12/27 13:06:31;;;;;;;;;4.60;4.60;;;;;22.25;72.32;99340.28;6189129;28;96676;-55
2023/12/27 13:09:57;;;;;;;;;5.00;4.50;;;;;21.66;74.14;99347.78;6189300;28;96459;-55
2023/12/27 13:13:02;;;;;;;;;4.00;4.00;;;;;21.34;75.45;99340.00;6185222;28;96976;-54
2023/12/27 13:16:06;;;;;;;;;5.80;4.00;;;;;21.13;77.25;99348.31;6189533;28;96166;-54
2023/12/27 13:19:10;;;;;;;;;4.50;4.00;;;;;20.75;78.33;99347.00;6189207;28;96300;-55
2023/12/27 13:22:13;;;;;;;;;5.20;4.80;;;;;20.41;80.30;99351.44;6196286;28;97059;-55
2023/12/27 13:25:17;;;;;;;;;5.50;5.00;;;;;20.02;82.29;99340.16;6193258;28;96856;-55
2023/12/27 13:28:25;;;;;;;;;7.40;6.40;;;;;19.64;83.58;99338.72;6189460;28;96950;-55
2023/12/27 13:31:28;;;;;;;;;6.00;5.00;;;;;19.23;85.34;99340.47;6189179;28;96536;-55
2023/12/27 13:34:32;;;;;;;;;7.00;6.60;;;;;18.78;87.28;99346.50;6171806;28;96942;-55
2023/12/27 13:37:36;;;;;;;;;5.00;5.00;;;;;18.30;89.54;99344.78;6192948;28;96205;-55
2023/12/27 13:40:39;;;;;;;;;7.00;5.25;;;;;17.90;92.29;99347.13;6191194;28;99144;-55
2023/12/27 13:43:44;;;;;;;;;4.40;4.40;;;;;17.60;94.89;99344.91;6180431;28;96851;-55
2023/12/27 13:46:47;;;;;;;;;6.00;5.00;;;;;17.48;95.90;99349.66;6171921;28;96483;-56
2023/12/27 13:49:50;;;;;;;;;4.20;4.00;;;;;17.37;97.27;99353.34;6175871;28;96282;-55
2023/12/27 13:52:53;;;;;;;;;7.00;5.40;;;;;17.26;97.88;99369.56;6176161;28;96175;-55
2023/12/27 13:55:56;;;;;;;;;7.40;7.40;;;;;17.20;98.70;99361.59;6178612;28;96952;-55
2023/12/27 13:59:05;;;;;;;;;7.00;7.00;;;;;17.04;99.68;99362.47;6185621;28;96233;-55
2023/12/27 14:02:09;;;;;;;;;5.00;5.00;;;;;16.89;100.00;99363.09;6185587;28;96587;-55
2023/12/27 14:05:12;;;;;;;;;6.00;6.00;;;;;16.78;100.00;99369.44;6186051;28;96302;-55
2023/12/27 14:08:16;;;;;;;;;4.20;4.20;;;;;16.59;100.00;99370.78;6180728;28;96390;-54
2023/12/27 14:11:19;;;;;;;;;6.00;5.40;;;;;16.40;100.00;99368.31;6179788;28;96850;-54
2023/12/27 14:14:23;;;;;;;;;9.00;8.00;;;;;16.15;100.00;99373.31;6187796;28;96394;-55
2023/12/27 14:17:28;;;;;;;;;7.40;7.00;;;;;15.93;100.00;99370.47;6202139;28;96335;-55
2023/12/27 14:20:32;;;;;;;;;5.60;5.20;;;;;15.64;100.00;99360.69;6195328;28;96731;-55